Date,TemperatureHighF,TemperatureAvgF,TemperatureLowF,DewpointHighF,DewpointAvgF,DewpointLowF,HumidityHigh,HumidityAvg,HumidityLow,PressureMaxIn,PressureMinIn,WindSpeedMaxMPH,WindSpeedAvgMPH,GustSpeedMaxMPH,PrecipitationSumIn
2013-2-1,16.9,11.3,5.1,8.9,3.7,-1.4,81,71,62,30.52,30.21,13,0,13,0.00
2013-2-2,27.7,22.5,16.4,23.5,17.8,8.7,86,82,71,30.39,30.08,10,0,10,0.00
2013-2-3,24.2,18.5,13.0,19.1,13.2,7.3,84,79,75,30.20,30.05,7,0,7,0.00
2013-2-4,36.4,27.7,20.6,31.7,22.5,13.8,89,80,73,30.19,29.88,5,0,5,0.03
2013-2-5,35.6,29.9,22.6,31.5,25.2,19.4,89,82,75,30.11,29.91,7,0,7,0.01
2013-2-6,36.2,31.4,28.6,28.9,24.7,21.5,89,77,61,30.35,30.11,6,0,6,0.01
2013-2-7,50.9,40.3,29.8,42.1,33.1,25.9,92,76,60,30.27,29.86,4,0,4,0.16
2013-2-8,43.8,33.7,29.4,41.3,29.0,23.1,92,83,73,30.43,29.88,19,0,19,0.01
2013-2-9,38.2,30.7,20.7,27.0,23.4,18.0,90,75,60,30.50,30.25,6,0,6,0.00
2013-2-10,49.8,36.7,32.1,47.0,29.1,23.1,91,74,65,30.25,29.76,4,0,15,0.04
2013-2-11,50.6,38.1,31.5,47.3,29.0,25.8,92,70,63,30.11,29.75,18,0,18,0.00
2013-2-12,43.7,34.3,27.6,30.5,26.7,23.1,92,74,56,30.21,30.01,5,0,5,0.00
2013-2-13,43.8,33.6,27.6,28.7,26.0,24.0,88,75,53,30.02,29.85,5,0,5,0.00
2013-2-14,34.9,33.4,32.3,30.3,29.2,28.4,89,84,77,29.92,29.91,2,0,2,0.00
2013-2-15,34.9,30.6,22.3,30.1,25.4,17.4,89,81,71,30.25,30.05,0,0,10,0.02
2013-2-16,24.4,22.0,19.0,19.1,14.1,10.0,85,72,60,30.23,30.18,1,0,12,0.00
2013-2-17,30.6,23.2,10.7,14.2,12.2,6.3,83,64,42,30.34,30.22,2,0,5,0.01
2013-2-18,58.3,41.5,25.3,42.7,29.6,13.6,89,63,46,30.25,29.64,14,1,14,0.15
2013-2-19,45.4,27.4,21.9,42.6,20.9,12.4,90,77,66,30.22,29.63,15,0,15,0.11
2013-2-20,26.0,20.1,12.6,15.7,11.6,5.7,81,69,56,30.43,30.21,11,0,11,0.00
2013-2-21,29.6,24.7,18.8,24.8,18.6,12.7,88,77,69,30.45,30.10,11,0,11,0.00
2013-2-22,35.3,32.8,27.9,32.9,30.2,24.8,94,90,84,30.13,29.93,10,0,11,0.15
2013-2-23,34.4,28.8,24.4,27.6,22.8,20.1,84,78,66,30.08,30.03,6,0,6,0.04
2013-2-24,39.0,30.3,21.0,27.7,23.2,17.8,89,75,59,30.22,30.06,0,0,7,0.04
2013-2-25,43.5,33.6,22.9,30.0,25.7,20.0,90,74,57,30.25,29.98,0,0,9,0.02
2013-2-26,41.4,38.7,32.3,40.1,36.2,26.8,95,91,70,29.96,29.45,3,0,7,0.95
2013-2-27,40.6,35.7,31.5,39.3,33.3,28.3,95,91,85,29.76,29.54,9,0,9,0.03
2013-2-28,37.2,33.7,31.4,33.0,30.8,28.5,92,89,83,30.06,29.75,9,0,9,0.05